Time;durP1;ratioP1;P1;durP2;ratioP2;P2;SDS_P1;SDS_P2;PMS_P1;PMS_P2;Temp;Humidity;BMP_temperature;BMP_pressure;BME280_temperature;BME280_humidity;BME280_pressure;Samples;Min_cycle;Max_cycle;Signal;HPM_P1;HPM_P2
2022/03/23 00:01:53;;;;;;;61.75;33.60;;;;;;;6.29;68.66;102940.41;5023285;28;20033;-69
2022/03/23 00:04:19;;;;;;;69.20;37.13;;;;;;;6.29;68.42;102932.22;5021876;28;20120;-69
2022/03/23 00:06:45;;;;;;;66.53;35.92;;;;;;;6.27;68.02;102923.31;5003834;28;20033;-68
2022/03/23 00:09:10;;;;;;;66.43;35.55;;;;;;;6.31;67.85;102925.59;5002865;28;20472;-68
2022/03/23 00:11:35;;;;;;;66.63;35.25;;;;;;;6.34;68.51;102927.19;5017214;28;20479;-68
2022/03/23 00:14:00;;;;;;;67.60;36.30;;;;;;;6.34;68.20;102928.03;5023068;28;20121;-69
2022/03/23 00:16:26;;;;;;;64.07;35.65;;;;;;;6.20;69.58;102929.38;5023048;28;20116;-68
2022/03/23 00:18:51;;;;;;;66.50;33.20;;;;;;;6.07;70.51;102937.03;5023738;28;20108;-69
2022/03/23 00:21:16;;;;;;;61.17;33.97;;;;;;;5.98;70.52;102941.56;5023024;28;20083;-69
2022/03/23 00:23:42;;;;;;;71.65;36.53;;;;;;;5.94;70.24;102937.41;5020267;28;20368;-68
2022/03/23 00:26:08;;;;;;;75.45;38.75;;;;;;;5.89;69.62;102933.38;5023683;28;20270;-68
2022/03/23 00:28:33;;;;;;;72.05;37.95;;;;;;;5.88;69.88;102937.06;5023480;28;20067;-69
2022/03/23 00:30:59;;;;;;;74.18;37.58;;;;;;;5.82;70.37;102941.25;5022666;28;20038;-69
2022/03/23 00:33:24;;;;;;;71.63;37.08;;;;;;;5.72;71.10;102937.69;5023221;28;20039;-69
2022/03/23 00:35:49;;;;;;;63.65;36.35;;;;;;;5.62;71.65;102948.63;5023464;28;20043;-69
2022/03/23 00:38:16;;;;;;;68.85;35.55;;;;;;;5.53;72.11;102945.94;5022372;28;20499;-68
2022/03/23 00:40:44;;;;;;;66.15;35.20;;;;;;;5.43;72.29;102940.50;5022131;28;20024;-68
2022/03/23 00:43:10;;;;;;;70.43;36.42;;;;;;;5.35;72.86;102940.38;5020754;28;20045;-68
2022/03/23 00:45:36;;;;;;;70.47;36.22;;;;;;;5.30;73.37;102935.34;5017922;28;20087;-69
2022/03/23 00:48:02;;;;;;;70.45;37.53;;;;;;;5.31;73.04;102944.38;5022895;28;20618;-69
2022/03/23 00:50:27;;;;;;;71.75;39.05;;;;;;;5.32;72.57;102936.06;5020691;28;20522;-69
2022/03/23 00:52:52;;;;;;;76.72;40.17;;;;;;;5.36;72.35;102937.47;5023018;28;20451;-69
2022/03/23 00:55:18;;;;;;;77.43;40.63;;;;;;;5.26;72.12;102938.50;5021957;28;20087;-68
2022/03/23 00:57:44;;;;;;;85.32;42.40;;;;;;;5.32;71.71;102940.63;5022855;28;20106;-69
2022/03/23 01:00:12;;;;;;;88.93;43.75;;;;;;;5.27;71.65;102953.84;5019214;28;20019;-67
2022/03/23 01:02:40;;;;;;;81.88;42.90;;;;;;;5.26;72.23;102944.81;5022744;28;20029;-66
2022/03/23 01:05:08;;;;;;;83.55;42.28;;;;;;;5.30;72.33;102945.38;5021831;28;20049;-69
2022/03/23 01:07:33;;;;;;;91.85;43.35;;;;;;;5.31;72.74;102939.78;5022211;28;20079;-69
2022/03/23 01:09:59;;;;;;;89.55;43.25;;;;;;;5.27;72.81;102938.38;5021307;28;20104;-69
2022/03/23 01:12:24;;;;;;;89.65;43.85;;;;;;;5.30;72.47;102937.22;5022105;28;20030;-69
2022/03/23 01:14:49;;;;;;;85.38;42.42;;;;;;;5.26;71.57;102938.50;5021911;28;20033;-69
2022/03/23 01:17:14;;;;;;;77.82;39.33;;;;;;;5.14;72.42;102935.06;5024547;28;20705;-69
2022/03/23 01:19:40;;;;;;;69.72;36.45;;;;;;;4.99;73.49;102939.22;5026559;28;20021;-69
2022/03/23 01:22:06;;;;;;;73.32;38.47;;;;;;;4.84;73.74;102928.75;5026532;28;20033;-69
2022/03/23 01:24:31;;;;;;;76.72;39.63;;;;;;;4.79;74.19;102913.84;5025647;28;20032;-69
2022/03/23 01:26:57;;;;;;;75.10;39.17;;;;;;;4.73;74.66;102925.31;5026730;28;20104;-69
2022/03/23 01:29:22;;;;;;;74.32;37.80;;;;;;;4.63;74.46;102926.16;5025881;28;20033;-69
2022/03/23 01:31:47;;;;;;;75.40;37.67;;;;;;;4.54;74.95;102921.53;5024907;28;20482;-69
2022/03/23 01:34:12;;;;;;;82.07;37.60;;;;;;;4.55;75.24;102923.25;5026215;28;20029;-68
2022/03/23 01:36:37;;;;;;;77.85;38.58;;;;;;;4.59;75.16;102911.09;5026511;28;20029;-69
2022/03/23 01:39:03;;;;;;;80.97;39.55;;;;;;;4.62;75.21;102921.72;5025818;28;20699;-69
2022/03/23 01:41:29;;;;;;;73.75;38.28;;;;;;;4.52;75.33;102917.25;5026068;28;20033;-69
2022/03/23 01:43:54;;;;;;;75.50;37.35;;;;;;;4.42;76.70;102914.50;5026259;28;20026;-69
2022/03/23 01:46:20;;;;;;;79.43;39.85;;;;;;;4.40;76.70;102908.34;5024786;28;20049;-68
2022/03/23 01:48:46;;;;;;;84.65;40.50;;;;;;;4.37;76.52;102903.19;5025597;28;20033;-69
2022/03/23 01:51:13;;;;;;;89.15;43.95;;;;;;;4.38;76.53;102905.75;5025748;28;20038;-68
2022/03/23 01:53:39;;;;;;;90.60;43.65;;;;;;;4.38;76.07;102910.34;5025374;28;20041;-68
2022/03/23 01:56:05;;;;;;;95.07;44.75;;;;;;;4.38;75.89;102904.91;5024949;28;20434;-69
2022/03/23 01:58:31;;;;;;;94.63;46.60;;;;;;;4.39;75.79;102903.91;5024378;28;20029;-68
2022/03/23 02:00:56;;;;;;;96.85;47.22;;;;;;;4.39;75.06;102907.47;5025505;28;20095;-69
2022/03/23 02:03:22;;;;;;;103.80;47.58;;;;;;;4.36;75.74;102906.91;5022596;28;20025;-69
2022/03/23 02:05:48;;;;;;;98.40;46.55;;;;;;;4.34;76.35;102906.19;5025254;28;20128;-69
2022/03/23 02:08:13;;;;;;;101.22;46.72;;;;;;;4.31;75.98;102903.72;5025697;28;20436;-68
2022/03/23 02:10:40;;;;;;;109.28;48.30;;;;;;;4.31;75.72;102893.72;5025185;28;20159;-69
2022/03/23 02:13:06;;;;;;;107.15;47.72;;;;;;;4.27;75.48;102902.31;5024668;28;20025;-68
2022/03/23 02:15:32;;;;;;;94.68;47.15;;;;;;;4.29;75.97;102905.72;5024539;28;20626;-69
2022/03/23 02:17:57;;;;;;;98.25;45.83;;;;;;;4.27;75.85;102905.88;5025953;28;20165;-69
2022/03/23 02:20:24;;;;;;;101.20;47.03;;;;;;;4.24;75.59;102900.72;5024402;28;20033;-69
2022/03/23 02:22:49;;;;;;;103.93;48.05;;;;;;;4.23;75.64;102901.72;5025557;28;20075;-69
2022/03/23 02:25:21;;;;;;;104.13;47.55;;;;;;;4.24;75.13;102899.84;5024538;28;20037;-69
2022/03/23 02:27:47;;;;;;;106.18;47.80;;;;;;;4.26;74.98;102900.56;5023781;28;20033;-69
2022/03/23 02:30:13;;;;;;;107.28;48.08;;;;;;;4.27;75.01;102897.72;5025641;28;20025;-69
2022/03/23 02:32:38;;;;;;;104.72;46.58;;;;;;;4.22;75.54;102905.44;5024728;28;20318;-69
2022/03/23 02:35:04;;;;;;;104.15;47.53;;;;;;;4.23;76.40;102898.13;5026004;28;20029;-69
2022/03/23 02:37:30;;;;;;;101.03;47.60;;;;;;;4.12;76.23;102899.97;5024771;28;20029;-69
2022/03/23 02:39:55;;;;;;;95.68;46.10;;;;;;;4.09;76.91;102899.38;5024401;28;20064;-69
2022/03/23 02:42:21;;;;;;;101.43;46.75;;;;;;;4.06;77.18;102886.06;5024104;28;20036;-69
2022/03/23 02:44:46;;;;;;;98.95;45.60;;;;;;;4.03;76.62;102903.50;5023310;28;20033;-69
2022/03/23 02:47:12;;;;;;;102.40;48.80;;;;;;;3.98;77.55;102905.78;5024654;28;20037;-68
2022/03/23 02:49:37;;;;;;;98.22;46.47;;;;;;;3.95;77.37;102900.59;5024562;28;20262;-69
2022/03/23 02:52:03;;;;;;;104.78;47.28;;;;;;;3.86;77.78;102902.31;5025342;28;20037;-71
2022/03/23 03:03:09;;;;;;;97.47;45.15;;;;;;;3.69;77.55;102902.06;5024859;28;20127;-68
2022/03/23 03:05:35;;;;;;;102.20;47.08;;;;;;;3.67;77.70;102899.47;5023931;28;20081;-68
2022/03/23 03:10:44;;;;;;;96.85;45.45;;;;;;;3.65;78.92;102904.19;5024986;28;20048;-68
2022/03/23 03:13:09;;;;;;;101.43;47.30;;;;;;;3.61;78.26;102906.31;5023367;28;20033;-68
2022/03/23 03:15:34;;;;;;;106.35;48.03;;;;;;;3.58;78.15;102911.16;5024102;28;20115;-69
2022/03/23 03:18:00;;;;;;;104.60;46.15;;;;;;;3.60;78.02;102904.59;5024172;28;20391;-68
2022/03/23 03:20:27;;;;;;;96.68;48.00;;;;;;;3.60;77.34;102909.19;5022266;28;20037;-69
2022/03/23 03:22:53;;;;;;;96.70;47.03;;;;;;;3.60;77.59;102915.47;5023862;28;20021;-69
2022/03/23 03:25:20;;;;;;;99.22;47.00;;;;;;;3.64;77.14;102914.19;5022991;28;20037;-68
2022/03/23 03:27:46;;;;;;;91.05;44.60;;;;;;;3.70;76.77;102912.81;5024233;28;20543;-69
2022/03/23 03:30:14;;;;;;;95.28;45.20;;;;;;;3.69;76.83;102921.06;5024135;28;20048;-68
2022/03/23 03:32:40;;;;;;;93.38;44.83;;;;;;;3.71;76.99;102914.53;5022152;28;20029;-68
2022/03/23 03:35:06;;;;;;;94.90;44.75;;;;;;;3.68;77.02;102920.22;5023718;28;20056;-69
2022/03/23 03:37:32;;;;;;;101.50;43.05;;;;;;;3.62;78.61;102920.75;5024148;28;20021;-68
2022/03/23 03:39:57;;;;;;;111.32;43.05;;;;;;;3.54;78.39;102915.13;5022974;28;20029;-69
2022/03/23 03:42:23;;;;;;;85.65;41.15;;;;;;;3.46;78.96;102912.25;5023612;28;20022;-68
2022/03/23 03:44:50;;;;;;;79.00;39.65;;;;;;;3.35;79.44;102921.31;5024144;28;20117;-68
2022/03/23 03:47:16;;;;;;;93.35;43.90;;;;;;;3.31;79.42;102922.56;5023579;28;20079;-68
2022/03/23 03:49:41;;;;;;;88.82;42.50;;;;;;;3.34;78.95;102925.00;5022456;28;20021;-68
2022/03/23 03:52:07;;;;;;;87.20;41.15;;;;;;;3.33;78.54;102924.16;5024119;28;20087;-68
2022/03/23 03:54:32;;;;;;;76.55;36.40;;;;;;;3.26;79.05;102924.81;5022526;28;20045;-68
2022/03/23 03:56:57;;;;;;;72.53;34.15;;;;;;;3.18;79.52;102925.47;5023791;28;20029;-68
2022/03/23 03:59:23;;;;;;;69.57;36.13;;;;;;;3.03;79.32;102922.19;5023346;28;20464;-68
2022/03/23 04:01:49;;;;;;;75.90;37.15;;;;;;;2.95;80.04;102932.00;5023133;28;20032;-69
2022/03/23 04:04:14;;;;;;;82.55;40.10;;;;;;;2.97;80.40;102927.28;5022092;28;20181;-68
2022/03/23 04:06:40;;;;;;;81.65;40.40;;;;;;;3.00;80.38;102919.75;5023298;28;20148;-69
2022/03/23 04:09:05;;;;;;;87.22;41.10;;;;;;;3.02;80.01;102925.06;5023478;28;20045;-68
2022/03/23 04:11:30;;;;;;;93.93;42.60;;;;;;;3.02;79.51;102925.06;5023213;28;20013;-68
2022/03/23 04:13:56;;;;;;;85.50;40.70;;;;;;;3.05;81.17;102925.66;5023666;28;20108;-68
2022/03/23 04:16:21;;;;;;;86.05;42.10;;;;;;;3.02;80.88;102920.47;5022697;28;20041;-68
2022/03/23 04:18:46;;;;;;;88.97;42.50;;;;;;;3.04;81.44;102929.38;5022739;28;20026;-68
2022/03/23 04:21:12;;;;;;;92.32;44.35;;;;;;;3.02;81.30;102931.34;5023060;28;20060;-67
2022/03/23 04:23:38;;;;;;;88.60;42.38;;;;;;;3.01;81.18;102929.63;5021808;28;20423;-69
2022/03/23 04:26:03;;;;;;;91.38;42.92;;;;;;;3.01;80.52;102921.47;5023902;28;20517;-68
2022/03/23 04:28:29;;;;;;;91.32;43.22;;;;;;;3.01;80.86;102924.19;5023000;28;20029;-68
2022/03/23 04:30:54;;;;;;;98.30;44.72;;;;;;;3.04;81.46;102926.66;5023008;28;20036;-69
2022/03/23 04:33:19;;;;;;;96.15;45.03;;;;;;;3.06;81.87;102921.94;5021958;28;20025;-68
2022/03/23 04:35:44;;;;;;;89.32;45.40;;;;;;;3.08;82.25;102919.97;5023109;28;20048;-68
2022/03/23 04:38:10;;;;;;;93.60;47.03;;;;;;;3.10;81.09;102928.00;5021021;28;20029;-68
2022/03/23 04:40:35;;;;;;;93.03;45.53;;;;;;;3.11;81.03;102924.28;5023106;28;20060;-69
2022/03/23 04:43:00;;;;;;;97.80;43.53;;;;;;;3.12;81.18;102924.13;5023413;28;20129;-68
2022/03/23 04:45:26;;;;;;;98.88;47.13;;;;;;;3.18;80.96;102919.16;5022858;28;20030;-69
2022/03/23 04:47:52;;;;;;;95.90;45.03;;;;;;;3.20;80.22;102925.34;5022526;28;20041;-69
2022/03/23 04:50:18;;;;;;;95.32;46.28;;;;;;;3.21;80.43;102930.63;5022271;28;20064;-69
2022/03/23 04:52:45;;;;;;;92.80;44.72;;;;;;;3.24;80.92;102926.78;5025756;28;20068;-69
2022/03/23 04:55:12;;;;;;;98.10;44.90;;;;;;;3.24;80.79;102926.78;5026398;28;20071;-68
2022/03/23 04:57:38;;;;;;;103.57;45.40;;;;;;;3.24;80.06;102934.94;5027379;28;20033;-69
2022/03/23 05:00:10;;;;;;;92.80;44.70;;;;;;;3.22;80.00;102926.94;5027461;28;20025;-69
2022/03/23 05:02:36;;;;;;;89.10;41.80;;;;;;;3.19;81.08;102931.75;5016609;28;20030;-68
2022/03/23 05:05:01;;;;;;;71.38;36.70;;;;;;;3.07;81.20;102933.66;5020807;28;20049;-69
2022/03/23 05:07:26;;;;;;;78.05;36.58;;;;;;;2.99;80.99;102936.16;5026860;28;20243;-68
2022/03/23 05:09:52;;;;;;;85.68;37.75;;;;;;;2.95;81.38;102938.28;5026273;28;20397;-69
2022/03/23 05:12:17;;;;;;;77.88;38.40;;;;;;;2.90;81.34;102943.25;5026580;28;20022;-68
2022/03/23 05:14:42;;;;;;;85.88;38.92;;;;;;;2.86;80.74;102939.06;5026136;28;20029;-69
2022/03/23 05:17:08;;;;;;;77.50;36.97;;;;;;;2.82;81.72;102945.72;5026226;28;20029;-69
2022/03/23 05:19:35;;;;;;;83.97;37.60;;;;;;;2.77;81.83;102942.53;5025026;28;20498;-68
2022/03/23 05:22:00;;;;;;;73.30;38.57;;;;;;;2.75;82.55;102942.69;5026205;28;20042;-69
2022/03/23 05:24:25;;;;;;;78.03;37.03;;;;;;;2.71;82.02;102941.19;5024827;28;20030;-69
2022/03/23 05:26:51;;;;;;;74.90;36.30;;;;;;;2.70;82.42;102952.19;5026612;28;20033;-69
2022/03/23 05:29:16;;;;;;;78.13;38.80;;;;;;;2.69;82.00;102945.06;5026255;28;20041;-68
2022/03/23 05:31:41;;;;;;;74.43;37.65;;;;;;;2.68;81.71;102949.59;5025286;28;20014;-69
2022/03/23 05:34:07;;;;;;;78.78;39.40;;;;;;;2.65;81.61;102940.88;5026317;28;20400;-69
2022/03/23 05:36:32;;;;;;;82.78;39.97;;;;;;;2.65;81.74;102952.56;5026071;28;20104;-69
2022/03/23 05:38:57;;;;;;;73.47;39.38;;;;;;;2.67;82.46;102950.59;5025102;28;20690;-69
2022/03/23 05:41:23;;;;;;;86.53;41.97;;;;;;;2.70;82.45;102946.78;5026312;28;20048;-69
2022/03/23 05:43:48;;;;;;;87.13;41.38;;;;;;;2.76;81.38;102952.53;5024309;28;20009;-69
2022/03/23 05:46:14;;;;;;;86.72;40.92;;;;;;;2.79;80.73;102963.16;5025314;28;20149;-69
2022/03/23 05:48:39;;;;;;;85.25;41.75;;;;;;;2.88;80.31;102961.50;5024147;28;20063;-70
2022/03/23 05:51:04;;;;;;;84.43;42.13;;;;;;;2.99;79.60;102956.06;5026761;28;20025;-69
2022/03/23 05:53:30;;;;;;;81.57;41.78;;;;;;;3.08;79.93;102965.25;5025541;28;20029;-69
2022/03/23 05:55:55;;;;;;;79.40;40.40;;;;;;;3.11;80.00;102963.16;5026220;28;20029;-69
2022/03/23 05:58:20;;;;;;;80.18;42.22;;;;;;;3.18;79.16;102973.47;5024772;28;20026;-69
2022/03/23 06:00:47;;;;;;;80.65;42.60;;;;;;;3.22;79.14;102977.66;5024816;28;20041;-69
2022/03/23 06:03:12;;;;;;;81.10;40.58;;;;;;;3.20;79.47;102980.53;5025190;28;20349;-69
2022/03/23 06:05:38;;;;;;;67.47;35.08;;;;;;;3.06;79.83;102981.69;5025966;28;20045;-69
2022/03/23 06:08:03;;;;;;;60.78;33.20;;;;;;;2.94;80.30;102980.00;5025396;28;20109;-69
2022/03/23 06:10:29;;;;;;;64.55;34.60;;;;;;;2.89;81.25;102982.25;5022883;28;20091;-69
2022/03/23 06:12:54;;;;;;;65.55;35.10;;;;;;;2.88;81.97;102977.78;5024126;28;20037;-69
2022/03/23 06:15:19;;;;;;;68.15;35.03;;;;;;;2.89;81.94;102979.53;5024504;28;20026;-69
2022/03/23 06:17:44;;;;;;;64.10;34.40;;;;;;;2.92;81.88;102983.81;5024049;28;20041;-68
2022/03/23 06:20:10;;;;;;;68.90;34.33;;;;;;;3.03;81.84;102991.91;5025343;28;20044;-69
2022/03/23 06:22:36;;;;;;;63.28;34.25;;;;;;;3.20;81.21;102985.09;5025183;28;20033;-69
2022/03/23 06:25:01;;;;;;;67.40;35.17;;;;;;;3.38;81.65;102991.66;5023570;28;20025;-69
2022/03/23 06:27:27;;;;;;;68.13;36.50;;;;;;;3.48;80.75;102987.16;5018205;28;20149;-69
2022/03/23 06:29:52;;;;;;;71.53;36.90;;;;;;;3.50;80.37;102987.91;5018365;28;20022;-70
2022/03/23 06:32:18;;;;;;;65.63;36.08;;;;;;;3.52;80.11;102983.19;5020695;28;20471;-68
2022/03/23 06:34:43;;;;;;;72.28;35.95;;;;;;;3.56;80.28;102987.38;5025490;28;20083;-68
2022/03/23 06:37:09;;;;;;;77.13;39.13;;;;;;;3.67;79.96;102991.03;5024720;28;20101;-69
2022/03/23 06:39:34;;;;;;;77.45;38.03;;;;;;;3.78;80.08;102988.22;5024007;28;20026;-68
2022/03/23 06:42:00;;;;;;;71.68;37.65;;;;;;;3.90;79.38;102987.13;5023983;28;20037;-68
2022/03/23 06:44:25;;;;;;;74.47;39.95;;;;;;;4.01;79.06;102992.50;5024842;28;20022;-68
2022/03/23 06:46:51;;;;;;;74.85;39.30;;;;;;;4.14;79.04;103003.16;5024969;28;20057;-68
2022/03/23 06:49:16;;;;;;;76.72;38.40;;;;;;;4.24;78.45;102997.75;5021406;28;20645;-70
2022/03/23 06:51:42;;;;;;;72.03;38.15;;;;;;;4.37;78.59;103001.13;5024448;28;20071;-69
2022/03/23 06:54:08;;;;;;;77.72;38.92;;;;;;;4.47;78.21;103001.16;5024374;28;20112;-69
2022/03/23 06:56:33;;;;;;;73.28;40.00;;;;;;;4.57;77.08;102993.91;5023664;28;20116;-69
2022/03/23 06:58:58;;;;;;;80.40;41.83;;;;;;;4.73;77.91;102998.81;5024822;28;20049;-68
2022/03/23 07:01:24;;;;;;;77.53;42.25;;;;;;;4.93;77.23;103003.28;5024268;28;20755;-69
2022/03/23 07:03:49;;;;;;;73.10;41.15;;;;;;;5.20;76.21;103003.44;5024880;28;20032;-69
2022/03/23 07:06:16;;;;;;;82.20;42.40;;;;;;;5.53;76.85;103003.19;5024129;28;20038;-68
2022/03/23 07:11:25;;;;;;;87.00;42.92;;;;;;;6.47;73.69;103004.09;5022796;28;20446;-70
2022/03/23 07:13:54;;;;;;;77.95;41.55;;;;;;;6.89;71.84;103000.84;5023359;28;20041;-70
2022/03/23 07:16:19;;;;;;;;;;;;;;;7.06;70.67;103000.00;5021176;28;20079;-70
2022/03/23 07:18:44;;;;;;;82.67;43.50;;;;;;;7.11;70.74;103007.75;5020726;28;20287;-70
2022/03/23 07:21:10;;;;;;;87.28;43.05;;;;;;;7.19;71.29;103002.34;5022455;28;20124;-69
2022/03/23 07:23:35;;;;;;;74.70;41.95;;;;;;;7.28;71.34;103009.63;5023460;28;20480;-71
2022/03/23 07:26:01;;;;;;;81.78;44.60;;;;;;;7.35;69.54;103007.09;5023323;28;20448;-75
2022/03/23 07:28:26;;;;;;;75.00;44.17;;;;;;;7.40;69.96;103015.69;5021339;28;20091;-81
2022/03/23 07:30:52;;;;;;;86.88;45.25;;;;;;;7.84;68.75;103011.13;5022887;28;20030;-81
2022/03/23 07:33:17;;;;;;;79.38;45.53;;;;;;;8.46;66.88;103011.00;5021979;28;20052;-79
2022/03/23 07:35:42;;;;;;;79.47;45.47;;;;;;;9.01;65.19;103010.53;5011884;28;20068;-79
2022/03/23 07:38:07;;;;;;;79.97;45.03;;;;;;;9.82;62.15;103010.59;5021604;28;20087;-82
2022/03/23 07:40:33;;;;;;;78.43;42.35;;;;;;;10.60;57.23;103009.09;5022813;28;20096;-78
2022/03/23 07:42:59;;;;;;;83.95;45.40;;;;;;;10.78;57.75;103011.56;5022219;28;20036;-76
2022/03/23 07:45:24;;;;;;;82.43;44.80;;;;;;;10.95;56.97;103009.59;5022445;28;20099;-75
2022/03/23 07:47:49;;;;;;;79.68;45.85;;;;;;;11.67;54.80;103004.63;5023062;28;20125;-75
2022/03/23 07:50:15;;;;;;;84.45;44.65;;;;;;;12.02;52.98;103010.53;5022359;28;20026;-73
2022/03/23 07:52:40;;;;;;;86.32;45.15;;;;;;;11.91;52.08;103018.22;5022140;28;20039;-73
2022/03/23 07:55:06;;;;;;;85.78;46.60;;;;;;;11.81;51.61;103019.47;5022408;28;20392;-72
2022/03/23 07:57:31;;;;;;;81.93;46.45;;;;;;;12.07;50.52;103016.34;5021029;28;20049;-72
2022/03/23 07:59:56;;;;;;;81.53;45.97;;;;;;;12.61;48.53;103018.81;5021441;28;20098;-72
2022/03/23 08:02:23;;;;;;;82.45;47.97;;;;;;;13.14;47.27;103013.97;5020958;28;20026;-75
2022/03/23 08:04:49;;;;;;;85.10;49.27;;;;;;;13.03;48.99;103019.97;5022466;28;20041;-75
2022/03/23 08:07:14;;;;;;;87.13;47.42;;;;;;;12.79;48.20;103022.03;5021361;28;20167;-74
2022/03/23 08:09:39;;;;;;;87.22;49.13;;;;;;;12.67;48.70;103023.56;5008636;28;20097;-75
2022/03/23 08:12:05;;;;;;;91.65;47.88;;;;;;;12.83;47.87;103031.66;5012552;28;20032;-75
2022/03/23 08:14:30;;;;;;;86.60;49.92;;;;;;;13.21;47.84;103023.19;5014216;28;20120;-74
2022/03/23 08:16:55;;;;;;;85.68;48.15;;;;;;;13.21;50.43;103023.19;5022700;28;20016;-79
2022/03/23 08:19:22;;;;;;;96.10;50.03;;;;;;;13.16;47.22;103028.44;5022169;28;20476;-78
2022/03/23 08:21:48;;;;;;;90.10;49.65;;;;;;;13.03;47.31;103031.00;5020087;28;20040;-79
2022/03/23 08:24:13;;;;;;;92.22;51.13;;;;;;;12.90;47.54;103024.31;5022289;28;20120;-79
2022/03/23 08:26:38;;;;;;;92.93;51.03;;;;;;;13.02;47.85;103029.31;5020028;28;20529;-77
2022/03/23 08:29:04;;;;;;;89.80;49.90;;;;;;;13.38;47.95;103027.44;5022055;28;20033;-79
2022/03/23 08:31:29;;;;;;;89.95;49.67;;;;;;;13.95;48.01;103026.50;5022129;28;20036;-78
2022/03/23 08:33:54;;;;;;;93.43;50.45;;;;;;;14.59;44.32;103022.69;5021495;28;20147;-79
2022/03/23 08:36:19;;;;;;;84.60;49.45;;;;;;;15.12;42.32;103019.31;5020839;28;20129;-77
2022/03/23 08:38:45;;;;;;;91.40;51.55;;;;;;;15.35;42.63;103016.16;5021572;28;20036;-77
2022/03/23 08:41:10;;;;;;;87.28;49.38;;;;;;;15.64;43.66;103026.06;5021126;28;20064;-78
2022/03/23 08:43:36;;;;;;;87.40;47.72;;;;;;;15.80;40.87;103017.31;5021082;28;20029;-77
2022/03/23 08:46:01;;;;;;;86.97;49.60;;;;;;;15.39;40.58;103021.09;5020549;28;20045;-78
2022/03/23 08:48:26;;;;;;;86.18;48.50;;;;;;;15.46;40.83;103016.44;5022103;28;20040;-78
2022/03/23 08:50:52;;;;;;;86.43;50.38;;;;;;;15.61;41.89;103023.66;5020318;28;20032;-68
2022/03/23 08:53:18;;;;;;;88.25;48.63;;;;;;;15.60;42.37;103017.28;5017338;28;20037;-65
2022/03/23 08:55:44;;;;;;;87.45;50.97;;;;;;;15.42;41.99;103028.97;5020958;28;20036;-61
2022/03/23 08:58:09;;;;;;;88.65;50.25;;;;;;;15.37;40.59;103028.75;5022262;28;20504;-65
2022/03/23 09:00:35;;;;;;;87.97;49.97;;;;;;;15.55;41.01;103026.22;5021949;28;20124;-63
2022/03/23 09:03:01;;;;;;;81.60;49.85;;;;;;;15.95;41.26;103025.44;5021028;28;20679;-62
2022/03/23 09:05:26;;;;;;;88.30;49.65;;;;;;;16.93;40.77;103019.88;5021950;28;20072;-61
2022/03/23 09:07:51;;;;;;;81.30;47.13;;;;;;;18.46;35.27;103019.63;5020278;28;20068;-61
2022/03/23 09:10:18;;;;;;;82.13;49.03;;;;;;;20.15;32.67;103020.47;5021399;28;20120;-61
2022/03/23 09:12:44;;;;;;;80.82;46.40;;;;;;;21.54;29.17;103025.97;5021086;28;20051;-63
2022/03/23 09:15:12;;;;;;;81.80;48.47;;;;;;;22.42;27.98;103026.34;5022204;28;20113;-64
2022/03/23 09:17:38;;;;;;;78.13;46.38;;;;;;;23.45;26.36;103029.31;5021696;28;20034;-62
2022/03/23 09:20:04;;;;;;;81.88;46.80;;;;;;;23.61;26.20;103024.72;5017556;28;20396;-64
2022/03/23 09:22:34;;;;;;;89.57;50.15;;;;;;;24.32;26.43;103023.34;5020077;28;20064;-73
2022/03/23 09:25:03;;;;;;;92.13;50.58;;;;;;;25.17;25.09;103028.88;5022691;28;20040;-59
2022/03/23 09:27:28;;;;;;;80.20;47.92;;;;;;;25.79;24.01;103022.25;5022180;28;20041;-64
2022/03/23 09:29:54;;;;;;;87.38;50.15;;;;;;;26.47;23.26;103018.28;5019879;28;20014;-60
2022/03/23 09:32:19;;;;;;;95.78;51.92;;;;;;;27.00;22.10;103024.25;5021209;28;20056;-61
2022/03/23 09:34:45;;;;;;;90.07;51.33;;;;;;;26.53;21.41;103017.13;5021527;28;20021;-61
2022/03/23 09:39:54;;;;;;;84.85;49.42;;;;;;;26.11;21.52;103015.50;5025558;28;20453;-62
2022/03/23 09:42:21;;;;;;;88.40;48.43;;;;;;;25.90;20.99;103022.25;5023608;28;20116;-65
2022/03/23 09:44:47;;;;;;;81.90;46.95;;;;;;;25.67;22.90;103020.81;5024268;28;20307;-64
2022/03/23 09:47:12;;;;;;;85.28;48.38;;;;;;;26.64;21.27;103025.25;5023916;28;20468;-62
2022/03/23 09:49:38;;;;;;;73.53;46.25;;;;;;;26.92;22.10;103031.38;5023810;28;20057;-68
2022/03/23 09:52:04;;;;;;;80.85;46.35;;;;;;;27.47;21.08;103025.69;5024103;28;20484;-63
2022/03/23 09:54:30;;;;;;;72.22;43.97;;;;;;;28.38;20.71;103022.13;5023653;28;20025;-66
2022/03/23 09:56:55;;;;;;;82.45;50.72;;;;;;;28.75;18.84;103019.75;5023449;28;20033;-66
2022/03/23 09:59:20;;;;;;;80.03;52.13;;;;;;;28.87;18.06;103018.16;5022562;28;20029;-67
2022/03/23 10:02:15;;;;;;;71.22;43.35;;;;;;;29.06;18.26;103025.88;5023693;28;20500;-63
2022/03/23 10:04:49;;;;;;;70.07;40.42;;;;;;;29.37;19.17;103021.44;5023189;28;20057;-66
2022/03/23 10:07:37;;;;;;;66.43;40.90;;;;;;;28.78;20.40;103025.63;5021299;28;20099;-65
2022/03/23 10:10:42;;;;;;;61.28;38.15;;;;;;;29.33;20.03;103026.03;5022649;28;20036;-70
2022/03/23 10:13:45;;;;;;;60.00;38.58;;;;;;;29.76;18.08;103022.28;5017271;28;20026;-65
2022/03/23 10:16:52;;;;;;;61.17;40.30;;;;;;;29.26;19.85;103022.75;5024926;28;20052;-69
2022/03/23 10:19:17;;;;;;;55.25;38.05;;;;;;;30.11;18.02;103029.28;5027554;28;20041;-67
2022/03/23 10:21:43;;;;;;;56.13;39.22;;;;;;;29.63;17.70;103021.06;5023419;28;20025;-70
2022/03/23 10:24:08;;;;;;;60.15;38.60;;;;;;;29.90;17.36;103018.31;5023097;28;20060;-67
2022/03/23 10:26:36;;;;;;;57.87;39.83;;;;;;;29.99;18.16;103016.47;5024222;28;20025;-70
2022/03/23 10:29:01;;;;;;;;;;;;;;;30.48;18.55;103015.00;5022844;28;20287;-70
2022/03/23 10:31:27;;;;;;;52.83;37.40;;;;;;;30.05;18.03;103019.22;5021688;28;20019;-70
2022/03/23 10:34:10;;;;;;;52.13;37.17;;;;;;;30.08;18.64;103010.94;5024195;28;20076;-71
2022/03/23 10:36:38;;;;;;;52.08;38.47;;;;;;;30.47;17.73;103007.66;5024162;28;20440;-70
2022/03/23 10:39:11;;;;;;;52.72;37.47;;;;;;;30.21;17.79;103015.84;5021357;28;20500;-70
2022/03/23 10:41:37;;;;;;;54.03;36.17;;;;;;;29.11;17.03;103004.00;5023033;28;20048;-70
2022/03/23 10:44:02;;;;;;;57.63;39.85;;;;;;;29.37;20.30;103012.94;5020735;28;20041;-71
2022/03/23 10:46:28;;;;;;;49.58;37.63;;;;;;;29.93;16.99;103006.38;5001212;28;20053;-70
2022/03/23 10:49:03;;;;;;;48.70;35.25;;;;;;;30.62;16.68;103000.00;5003905;28;20152;-70
2022/03/23 10:51:31;;;;;;;52.50;36.25;;;;;;;29.73;16.64;103004.75;5003365;28;20041;-71
2022/03/23 10:53:57;;;;;;;51.63;37.47;;;;;;;29.90;18.10;102995.66;5018925;28;20060;-71
2022/03/23 10:56:36;;;;;;;48.72;35.33;;;;;;;30.26;16.75;102994.19;5022204;28;20025;-71
2022/03/23 10:59:22;;;;;;;48.65;36.97;;;;;;;30.21;18.66;102989.44;5022879;28;20358;-72
2022/03/23 11:02:07;;;;;;;48.67;36.88;;;;;;;30.68;17.68;102993.91;5022208;28;20034;-71
2022/03/23 11:04:44;;;;;;;50.03;37.72;;;;;;;30.81;17.44;102994.22;5023359;28;20088;-71
2022/03/23 11:07:30;;;;;;;43.40;31.85;;;;;;;31.43;17.45;102997.38;5022890;28;20034;-71
2022/03/23 11:15:47;;;;;;;46.25;32.90;;;;;;;31.24;15.79;102989.00;5023054;28;20064;-71
2022/03/23 11:18:15;;;;;;;34.92;27.52;;;;;;;31.12;13.55;102991.53;5022040;28;20034;-71
2022/03/23 11:20:47;;;;;;;37.35;30.80;;;;;;;30.07;14.98;102989.41;5023384;28;20036;-70
2022/03/23 11:23:19;;;;;;;39.17;31.08;;;;;;;30.37;15.64;102987.19;5021712;28;20356;-70
2022/03/23 11:25:46;;;;;;;38.72;29.70;;;;;;;30.49;14.60;102985.50;5021887;28;20545;-71
2022/03/23 11:28:13;;;;;;;42.05;31.45;;;;;;;30.84;13.20;102990.75;5022793;28;20029;-70
2022/03/23 11:30:39;;;;;;;39.60;29.48;;;;;;;30.76;12.70;102983.81;5022414;28;20018;-70
2022/03/23 11:33:07;;;;;;;35.67;28.13;;;;;;;30.31;15.41;102986.41;5023197;28;20038;-70
2022/03/23 11:35:34;;;;;;;40.42;30.50;;;;;;;31.00;14.28;102984.41;5021998;28;20033;-71